Time;durP1;ratioP1;P1;durP2;ratioP2;P2;SDS_P1;SDS_P2;PMS_P1;PMS_P2;Temp;Humidity;BMP_temperature;BMP_pressure;BME280_temperature;BME280_humidity;BME280_pressure;Samples;Min_cycle;Max_cycle;Signal;HPM_P1;HPM_P2
2021/06/19 00:01:51;;;;;;;10.98;7.15;;;;;;;;;;10529274;28;20200;-68
2021/06/19 00:06:55;;;;;;;12.40;7.82;;;;;;;;;;10521685;28;20245;-68
2021/06/19 00:11:58;;;;;;;10.97;7.43;;;;;;;;;;10526089;28;20191;-67
2021/06/19 00:17:00;;;;;;;13.33;8.13;;;;;;;;;;10536777;28;20222;-68
2021/06/19 00:22:05;;;;;;;11.47;7.83;;;;;;;;;;10522794;28;20192;-69
2021/06/19 00:27:07;;;;;;;12.40;8.40;;;;;;;;;;10528410;28;20739;-69
2021/06/19 00:32:10;;;;;;;10.70;7.73;;;;;;;;;;10524122;28;20275;-70
2021/06/19 00:37:14;;;;;;;10.70;7.40;;;;;;;;;;10530106;28;20631;-69
2021/06/19 00:42:18;;;;;;;10.40;7.90;;;;;;;;;;10534912;28;20850;-69
2021/06/19 00:47:20;;;;;;;11.30;8.13;;;;;;;;;;10531310;28;20706;-69
2021/06/19 00:52:24;;;;;;;11.47;7.80;;;;;;;;;;10535795;28;20223;-68
2021/06/19 00:57:27;;;;;;;10.93;7.70;;;;;;;;;;10533689;28;20761;-70
2021/06/19 01:02:30;;;;;;;10.50;7.60;;;;;;;;;;10529581;28;20219;-68
2021/06/19 01:07:34;;;;;;;11.70;8.20;;;;;;;;;;10535185;28;20220;-69
2021/06/19 01:12:37;;;;;;;9.88;7.75;;;;;;;;;;10531519;28;20675;-69
2021/06/19 01:17:39;;;;;;;11.23;8.07;;;;;;;;;;10532251;28;20214;-69
2021/06/19 01:22:44;;;;;;;13.73;8.60;;;;;;;;;;10527965;28;20805;-69
2021/06/19 01:27:50;;;;;;;12.13;7.68;;;;;;;;;;10525690;28;20714;-68
2021/06/19 01:32:53;;;;;;;11.10;8.10;;;;;;;;;;10530396;28;20202;-69
2021/06/19 01:37:57;;;;;;;13.05;7.85;;;;;;;;;;10531276;28;20234;-69
2021/06/19 01:43:01;;;;;;;11.33;7.80;;;;;;;;;;10534089;28;20278;-70
2021/06/19 01:48:05;;;;;;;11.63;7.77;;;;;;;;;;10523925;28;20272;-70
2021/06/19 01:53:07;;;;;;;13.05;7.57;;;;;;;;;;10540635;28;20192;-70
2021/06/19 01:58:12;;;;;;;10.43;7.77;;;;;;;;;;10533748;28;20212;-68
2021/06/19 02:03:15;;;;;;;12.10;8.23;;;;;;;;;;10529473;28;20286;-67
2021/06/19 02:08:19;;;;;;;12.93;8.20;;;;;;;;;;10547060;28;20239;-68
2021/06/19 02:13:23;;;;;;;10.57;7.80;;;;;;;;;;10531230;28;20222;-69
2021/06/19 02:18:26;;;;;;;12.83;7.90;;;;;;;;;;10528641;28;20227;-69
2021/06/19 02:23:29;;;;;;;12.20;8.17;;;;;;;;;;10532183;28;20270;-68
2021/06/19 02:28:33;;;;;;;11.17;8.20;;;;;;;;;;10530784;28;20678;-69
2021/06/19 02:33:36;;;;;;;11.07;8.53;;;;;;;;;;10531932;28;20264;-68
2021/06/19 02:38:38;;;;;;;13.20;7.97;;;;;;;;;;10525581;28;20250;-68
2021/06/19 02:43:42;;;;;;;11.73;8.37;;;;;;;;;;10526115;28;20193;-67
2021/06/19 02:48:45;;;;;;;12.00;8.63;;;;;;;;;;10529771;28;20257;-68
2021/06/19 02:53:47;;;;;;;11.03;7.53;;;;;;;;;;10526745;28;20283;-69
2021/06/19 02:58:51;;;;;;;13.60;8.37;;;;;;;;;;10530853;28;20306;-69
2021/06/19 03:03:54;;;;;;;12.43;8.23;;;;;;;;;;10527030;28;20188;-69
2021/06/19 03:08:56;;;;;;;11.23;8.57;;;;;;;;;;10529808;28;20350;-68
2021/06/19 03:14:00;;;;;;;13.10;9.13;;;;;;;;;;10528208;28;20303;-68
2021/06/19 03:19:05;;;;;;;12.73;8.67;;;;;;;;;;10544935;28;20268;-69
2021/06/19 03:24:08;;;;;;;12.27;8.70;;;;;;;;;;10528815;28;20271;-69
2021/06/19 03:29:12;;;;;;;10.73;8.33;;;;;;;;;;10527875;28;20241;-69
2021/06/19 03:34:14;;;;;;;13.77;8.80;;;;;;;;;;10530038;28;20270;-69
2021/06/19 03:39:17;;;;;;;13.03;8.93;;;;;;;;;;10522942;28;20302;-69
2021/06/19 03:44:20;;;;;;;11.50;8.70;;;;;;;;;;10526736;28;20278;-68
2021/06/19 03:49:23;;;;;;;13.30;8.90;;;;;;;;;;10528420;28;20732;-68
2021/06/19 03:54:26;;;;;;;11.93;9.00;;;;;;;;;;10526532;28;20282;-69
2021/06/19 03:59:30;;;;;;;13.30;8.53;;;;;;;;;;10529923;28;20914;-69
2021/06/19 04:04:33;;;;;;;11.90;8.17;;;;;;;;;;10543592;28;20214;-68
2021/06/19 04:09:35;;;;;;;12.13;8.97;;;;;;;;;;10531204;28;20222;-69
2021/06/19 04:14:39;;;;;;;12.63;8.90;;;;;;;;;;10531187;28;20663;-68
2021/06/19 04:20:02;;;;;;;13.20;8.37;;;;;;;;;;10525790;28;20227;-69
2021/06/19 04:25:08;;;;;;;11.40;8.30;;;;;;;;;;10532951;28;20210;-71
2021/06/19 04:30:14;;;;;;;12.10;8.50;;;;;;;;;;10535420;28;20211;-70
2021/06/19 04:35:17;;;;;;;10.17;8.07;;;;;;;;;;10533777;28;20195;-70
2021/06/19 04:40:25;;;;;;;11.57;8.30;;;;;;;;;;10536001;28;20287;-69
2021/06/19 04:45:29;;;;;;;11.93;8.80;;;;;;;;;;10534944;28;20527;-70
2021/06/19 04:50:33;;;;;;;12.83;7.90;;;;;;;;;;10533913;28;20215;-69
2021/06/19 04:55:36;;;;;;;11.20;7.53;;;;;;;;;;10535306;28;20279;-69
2021/06/19 05:00:40;;;;;;;12.02;7.43;;;;;;;;;;10532329;28;20212;-69
2021/06/19 05:05:42;;;;;;;11.75;7.88;;;;;;;;;;10533966;28;20195;-69
2021/06/19 05:10:45;;;;;;;12.52;7.57;;;;;;;;;;10533200;28;20257;-68
2021/06/19 05:15:49;;;;;;;10.02;7.13;;;;;;;;;;10529144;28;20637;-68
2021/06/19 05:20:52;;;;;;;9.82;7.00;;;;;;;;;;10523294;28;20246;-70
2021/06/19 05:25:54;;;;;;;11.10;7.25;;;;;;;;;;10533807;28;20275;-71
2021/06/19 05:30:59;;;;;;;10.52;6.75;;;;;;;;;;10528373;28;20215;-70
2021/06/19 05:36:02;;;;;;;9.40;6.93;;;;;;;;;;10532605;28;20231;-70
2021/06/19 05:41:04;;;;;;;10.90;7.40;;;;;;;;;;10532907;28;20633;-70
2021/06/19 05:46:08;;;;;;;10.38;7.30;;;;;;;;;;10534412;28;20275;-71
2021/06/19 05:51:11;;;;;;;11.35;6.68;;;;;;;;;;10529409;28;20219;-69
2021/06/19 05:56:14;;;;;;;9.88;6.80;;;;;;;;;;10532353;28;20683;-68
2021/06/19 06:01:18;;;;;;;11.77;6.78;;;;;;;;;;10529076;28;20257;-69
2021/06/19 06:06:20;;;;;;;11.80;7.25;;;;;;;;;;10530484;28;20200;-69
2021/06/19 06:11:23;;;;;;;12.82;7.63;;;;;;;;;;10531909;28;20290;-69
2021/06/19 06:16:27;;;;;;;9.93;7.53;;;;;;;;;;10533882;28;20299;-70
2021/06/19 06:21:29;;;;;;;10.35;7.25;;;;;;;;;;10529135;28;20755;-70
2021/06/19 06:26:32;;;;;;;10.63;6.78;;;;;;;;;;10543899;28;20199;-68
2021/06/19 06:31:36;;;;;;;12.15;7.28;;;;;;;;;;10536330;28;20571;-68
2021/06/19 06:36:38;;;;;;;11.15;6.25;;;;;;;;;;10530878;28;20211;-70
2021/06/19 06:41:41;;;;;;;11.48;6.70;;;;;;;;;;10528486;28;20269;-70
2021/06/19 06:46:45;;;;;;;11.45;6.85;;;;;;;;;;10537119;28;20231;-71
2021/06/19 06:51:48;;;;;;;12.32;6.65;;;;;;;;;;10534016;28;20586;-71
2021/06/19 06:56:50;;;;;;;10.55;6.35;;;;;;;;;;10531574;28;20291;-70
2021/06/19 07:01:57;;;;;;;12.43;6.78;;;;;;;;;;10534493;28;20188;-71
2021/06/19 07:07:00;;;;;;;10.80;6.50;;;;;;;;;;10541397;28;20254;-72
2021/06/19 07:12:03;;;;;;;11.57;6.30;;;;;;;;;;10526877;28;20528;-71
2021/06/19 07:17:09;;;;;;;10.70;6.38;;;;;;;;;;10527950;28;20220;-71
2021/06/19 07:22:12;;;;;;;11.77;7.10;;;;;;;;;;10533430;28;20213;-70
2021/06/19 07:27:14;;;;;;;12.93;6.50;;;;;;;;;;10533727;28;20219;-70
2021/06/19 07:32:18;;;;;;;10.75;5.97;;;;;;;;;;10526931;28;20211;-72
2021/06/19 07:37:22;;;;;;;11.07;6.32;;;;;;;;;;10526817;28;20381;-71
2021/06/19 07:42:24;;;;;;;8.73;5.10;;;;;;;;;;10536591;28;20264;-70
2021/06/19 07:47:28;;;;;;;11.82;5.97;;;;;;;;;;10530403;28;20695;-70
2021/06/19 07:52:31;;;;;;;11.00;6.25;;;;;;;;;;10527898;28;20222;-71
2021/06/19 07:57:34;;;;;;;13.15;6.85;;;;;;;;;;10525338;28;20260;-69
2021/06/19 08:02:38;;;;;;;10.27;6.53;;;;;;;;;;10526102;28;20245;-70
2021/06/19 08:07:41;;;;;;;9.50;6.35;;;;;;;;;;10520567;28;20584;-71
2021/06/19 08:12:43;;;;;;;10.98;6.45;;;;;;;;;;10528483;28;20256;-71
2021/06/19 08:17:47;;;;;;;10.25;6.05;;;;;;;;;;10519230;28;20320;-70
2021/06/19 08:22:50;;;;;;;12.05;5.75;;;;;;;;;;10519932;28;20283;-71
2021/06/19 08:27:53;;;;;;;11.57;6.18;;;;;;;;;;10524592;28;20219;-68
2021/06/19 08:32:56;;;;;;;11.52;6.38;;;;;;;;;;10520083;28;20290;-69
2021/06/19 08:37:59;;;;;;;9.02;5.90;;;;;;;;;;10526675;28;20239;-70
2021/06/19 08:43:09;;;;;;;12.38;6.05;;;;;;;;;;10516641;28;20196;-70
2021/06/19 08:48:34;;;;;;;9.02;5.22;;;;;;;;;;10526946;28;20242;-70
2021/06/19 08:53:56;;;;;;;11.18;5.63;;;;;;;;;;10522103;28;20198;-71
2021/06/19 08:59:01;;;;;;;9.82;5.45;;;;;;;;;;10533251;28;20329;-69
2021/06/19 09:04:06;;;;;;;9.43;5.78;;;;;;;;;;10533145;28;20555;-69
2021/06/19 09:09:09;;;;;;;9.48;5.75;;;;;;;;;;10521934;28;20776;-70
2021/06/19 09:14:12;;;;;;;11.90;5.60;;;;;;;;;;10534619;28;20187;-70
2021/06/19 09:19:27;;;;;;;10.77;6.40;;;;;;;;;;10530593;28;20302;-70
2021/06/19 09:24:40;;;;;;;8.85;5.70;;;;;;;;;;10528306;28;20203;-70
2021/06/19 09:29:43;;;;;;;12.05;6.13;;;;;;;;;;10531153;28;20225;-69
2021/06/19 09:34:50;;;;;;;10.48;6.00;;;;;;;;;;10529238;28;20194;-71
2021/06/19 09:39:53;;;;;;;8.57;5.32;;;;;;;;;;10529517;28;20211;-71
2021/06/19 09:44:56;;;;;;;8.88;6.15;;;;;;;;;;10531368;28;20199;-70
2021/06/19 09:50:05;;;;;;;11.35;6.25;;;;;;;;;;10531628;28;20207;-68
2021/06/19 09:55:11;;;;;;;10.48;5.97;;;;;;;;;;10525863;28;20218;-71
2021/06/19 10:00:15;;;;;;;10.90;6.38;;;;;;;;;;10531389;28;20310;-71
2021/06/19 10:05:19;;;;;;;11.30;6.90;;;;;;;;;;10547647;28;20191;-70
2021/06/19 10:10:23;;;;;;;10.20;6.07;;;;;;;;;;10527794;28;20226;-72
2021/06/19 10:15:25;;;;;;;9.20;6.68;;;;;;;;;;10533421;28;20237;-72
2021/06/19 10:20:30;;;;;;;11.60;7.15;;;;;;;;;;10529859;28;20365;-70
2021/06/19 10:25:32;;;;;;;8.93;6.10;;;;;;;;;;10525854;28;20639;-71
2021/06/19 10:30:35;;;;;;;11.85;6.57;;;;;;;;;;10530673;28;20211;-71
2021/06/19 10:35:52;;;;;;;8.23;6.38;;;;;;;;;;10528516;28;20217;-71
2021/06/19 10:40:56;;;;;;;10.32;7.28;;;;;;;;;;10523841;28;20613;-71
2021/06/19 10:46:00;;;;;;;10.77;6.82;;;;;;;;;;10530178;28;20231;-71
2021/06/19 10:51:18;;;;;;;8.43;6.28;;;;;;;;;;10524879;28;20207;-70
2021/06/19 10:56:41;;;;;;;9.52;6.25;;;;;;;;;;10526172;28;20226;-71
2021/06/19 11:01:44;;;;;;;10.68;7.38;;;;;;;;;;10530695;28;20210;-71
2021/06/19 11:06:47;;;;;;;8.77;6.25;;;;;;;;;;10527528;28;20624;-69
2021/06/19 11:11:52;;;;;;;7.90;6.30;;;;;;;;;;10527202;28;20187;-70
2021/06/19 11:16:55;;;;;;;10.77;6.82;;;;;;;;;;10525002;28;20528;-70
2021/06/19 11:22:12;;;;;;;10.32;6.68;;;;;;;;;;10525280;28;20222;-71
2021/06/19 11:27:16;;;;;;;9.57;6.70;;;;;;;;;;10528341;28;20252;-70
2021/06/19 11:32:22;;;;;;;9.63;6.55;;;;;;;;;;10527914;28;20266;-72
2021/06/19 11:37:25;;;;;;;11.70;7.05;;;;;;;;;;10529120;28;20223;-71
2021/06/19 11:42:28;;;;;;;9.40;6.55;;;;;;;;;;10523586;28;20293;-70
2021/06/19 11:47:31;;;;;;;9.23;7.13;;;;;;;;;;10526996;28;20239;-71
2021/06/19 11:52:33;;;;;;;9.32;6.95;;;;;;;;;;10526658;28;20256;-70
2021/06/19 11:57:37;;;;;;;10.25;7.25;;;;;;;;;;10525043;28;20230;-71
2021/06/19 12:02:41;;;;;;;9.73;7.28;;;;;;;;;;10526550;28;20229;-70
2021/06/19 12:07:44;;;;;;;10.38;6.97;;;;;;;;;;10525564;28;20207;-70
2021/06/19 12:12:56;;;;;;;9.48;7.03;;;;;;;;;;10527232;28;20281;-70
2021/06/19 12:18:00;;;;;;;11.15;7.75;;;;;;;;;;10518158;28;20286;-71
2021/06/19 12:23:13;;;;;;;10.27;7.05;;;;;;;;;;10522915;28;20183;-72
2021/06/19 12:28:24;;;;;;;10.60;6.82;;;;;;;;;;10526680;28;20203;-70
2021/06/19 12:33:27;;;;;;;10.18;6.72;;;;;;;;;;10534174;28;20511;-70
2021/06/19 12:38:30;;;;;;;12.50;7.43;;;;;;;;;;10535760;28;20212;-71
2021/06/19 12:43:45;;;;;;;11.18;7.10;;;;;;;;;;10533503;28;20663;-72
2021/06/19 12:48:48;;;;;;;11.98;7.30;;;;;;;;;;10532408;28;20207;-70
2021/06/19 12:53:51;;;;;;;12.10;7.25;;;;;;;;;;10533598;28;20283;-69
2021/06/19 12:58:55;;;;;;;12.27;6.95;;;;;;;;;;10530645;28;20212;-71
2021/06/19 13:03:58;;;;;;;10.30;6.97;;;;;;;;;;10535799;28;20576;-71
2021/06/19 13:09:01;;;;;;;12.27;8.07;;;;;;;;;;10533312;28;20310;-70
2021/06/19 13:14:05;;;;;;;12.25;6.78;;;;;;;;;;10531222;28;20215;-71
2021/06/19 13:19:09;;;;;;;10.73;6.45;;;;;;;;;;10532861;28;20306;-72
2021/06/19 13:24:18;;;;;;;9.23;7.18;;;;;;;;;;10524856;28;20206;-70
2021/06/19 13:29:23;;;;;;;10.10;6.88;;;;;;;;;;10531058;28;20625;-71
2021/06/19 13:34:26;;;;;;;13.25;7.40;;;;;;;;;;10528249;28;20278;-71
2021/06/19 13:39:29;;;;;;;11.65;7.32;;;;;;;;;;10532620;28;20675;-71
2021/06/19 13:44:35;;;;;;;9.52;6.70;;;;;;;;;;10531462;28;20199;-69
2021/06/19 13:49:38;;;;;;;9.75;7.15;;;;;;;;;;10526179;28;20683;-71
2021/06/19 13:54:42;;;;;;;10.57;6.57;;;;;;;;;;10523736;28;20206;-70
2021/06/19 13:59:46;;;;;;;11.07;6.28;;;;;;;;;;10532118;28;20241;-70
2021/06/19 14:04:49;;;;;;;8.98;6.18;;;;;;;;;;10529679;28;20192;-70
2021/06/19 14:09:51;;;;;;;9.60;6.30;;;;;;;;;;10530614;28;20219;-70
2021/06/19 14:14:55;;;;;;;13.15;10.05;;;;;;;;;;10532515;28;20246;-69
2021/06/19 14:19:58;;;;;;;10.13;6.07;;;;;;;;;;10530358;28;20243;-70
2021/06/19 14:25:00;;;;;;;11.32;6.32;;;;;;;;;;10531149;28;20192;-70
2021/06/19 14:30:05;;;;;;;9.70;6.45;;;;;;;;;;10529657;28;20706;-69
2021/06/19 14:35:09;;;;;;;9.57;6.68;;;;;;;;;;10531165;28;20785;-69
2021/06/19 14:40:12;;;;;;;8.90;6.57;;;;;;;;;;10529701;28;20207;-70
2021/06/19 14:45:17;;;;;;;10.98;7.47;;;;;;;;;;10525907;28;20194;-69
2021/06/19 14:50:20;;;;;;;9.48;6.68;;;;;;;;;;10527897;28;20212;-69
2021/06/19 14:55:23;;;;;;;9.75;6.57;;;;;;;;;;10522940;28;20667;-70
2021/06/19 15:00:27;;;;;;;9.90;6.60;;;;;;;;;;10525298;28;20611;-70
2021/06/19 15:05:38;;;;;;;9.13;6.07;;;;;;;;;;10529239;28;20530;-70
2021/06/19 15:10:40;;;;;;;8.23;6.28;;;;;;;;;;10523060;28;20600;-71
2021/06/19 15:15:44;;;;;;;10.95;6.25;;;;;;;;;;10522508;28;20567;-70
2021/06/19 15:20:47;;;;;;;10.18;5.47;;;;;;;;;;10518695;28;20211;-68
2021/06/19 15:25:49;;;;;;;7.72;5.30;;;;;;;;;;10520335;28;20188;-70
2021/06/19 15:30:53;;;;;;;10.23;6.18;;;;;;;;;;10526561;28;20211;-71
2021/06/19 15:35:56;;;;;;;8.50;5.60;;;;;;;;;;10519904;28;20549;-71
2021/06/19 15:40:58;;;;;;;10.18;5.40;;;;;;;;;;10527765;28;20341;-71
2021/06/19 15:46:02;;;;;;;8.20;4.90;;;;;;;;;;10526674;28;20709;-71
2021/06/19 15:51:23;;;;;;;10.50;4.90;;;;;;;;;;10518421;28;20216;-71
2021/06/19 15:56:26;;;;;;;8.23;5.40;;;;;;;;;;10525365;28;20196;-70
2021/06/19 16:01:29;;;;;;;11.23;5.15;;;;;;;;;;10525595;28;20291;-71
2021/06/19 16:06:32;;;;;;;9.43;5.72;;;;;;;;;;10534044;28;20200;-71
2021/06/19 16:11:35;;;;;;;9.70;5.90;;;;;;;;;;10535335;28;20192;-71
2021/06/19 16:16:39;;;;;;;8.63;5.70;;;;;;;;;;10529808;28;20238;-70
2021/06/19 16:21:42;;;;;;;9.55;5.68;;;;;;;;;;10534244;28;20248;-70
2021/06/19 16:26:44;;;;;;;11.30;6.38;;;;;;;;;;10531060;28;20249;-69
2021/06/19 16:31:48;;;;;;;10.55;6.35;;;;;;;;;;10533902;28;20251;-69
2021/06/19 16:36:51;;;;;;;8.20;6.05;;;;;;;;;;10532482;28;20700;-70
2021/06/19 16:41:54;;;;;;;10.63;6.13;;;;;;;;;;10534306;28;20222;-69
2021/06/19 16:46:58;;;;;;;9.25;6.28;;;;;;;;;;10530249;28;20290;-70
2021/06/19 16:52:01;;;;;;;10.35;6.05;;;;;;;;;;10531524;28;20195;-70
2021/06/19 16:57:04;;;;;;;8.65;6.15;;;;;;;;;;10528297;28;20239;-70
2021/06/19 17:02:08;;;;;;;10.05;6.90;;;;;;;;;;10532771;28;20385;-70
2021/06/19 17:07:10;;;;;;;12.05;6.65;;;;;;;;;;10533156;28;20226;-69
2021/06/19 17:12:13;;;;;;;10.25;6.13;;;;;;;;;;10530855;28;20219;-71
2021/06/19 17:17:17;;;;;;;10.65;6.30;;;;;;;;;;10532406;28;20230;-71
2021/06/19 17:22:21;;;;;;;9.77;6.15;;;;;;;;;;10531463;28;20667;-71
2021/06/19 17:27:24;;;;;;;9.75;6.07;;;;;;;;;;10529998;28;20326;-71
2021/06/19 17:32:28;;;;;;;9.55;5.90;;;;;;;;;;10532611;28;20327;-70
2021/06/19 17:37:30;;;;;;;8.90;5.65;;;;;;;;;;10530206;28;20286;-71
2021/06/19 17:42:33;;;;;;;9.82;6.03;;;;;;;;;;10531845;28;20203;-71
2021/06/19 17:47:37;;;;;;;11.20;5.90;;;;;;;;;;10539984;28;20223;-71
2021/06/19 17:52:40;;;;;;;10.43;5.72;;;;;;;;;;10529719;28;20190;-71
2021/06/19 17:57:42;;;;;;;10.38;6.07;;;;;;;;;;10530167;28;20216;-69
2021/06/19 18:02:46;;;;;;;8.77;6.00;;;;;;;;;;10526339;28;20564;-72
2021/06/19 18:07:49;;;;;;;11.20;5.85;;;;;;;;;;10530430;28;20239;-71
2021/06/19 18:12:52;;;;;;;13.02;6.85;;;;;;;;;;10529976;28;20261;-71
2021/06/19 18:17:56;;;;;;;12.20;6.32;;;;;;;;;;10529284;28;20231;-70
2021/06/19 18:22:58;;;;;;;10.20;6.68;;;;;;;;;;10528241;28;20203;-70
2021/06/19 18:28:01;;;;;;;11.43;6.55;;;;;;;;;;10524460;28;20268;-70
2021/06/19 18:33:05;;;;;;;11.48;7.00;;;;;;;;;;10526790;28;20268;-71
2021/06/19 18:38:08;;;;;;;10.77;7.40;;;;;;;;;;10527306;28;20207;-71
2021/06/19 18:43:11;;;;;;;11.13;7.38;;;;;;;;;;10525812;28;20527;-70
2021/06/19 18:48:15;;;;;;;13.15;7.60;;;;;;;;;;10539644;28;20220;-71
2021/06/19 18:53:17;;;;;;;12.40;7.10;;;;;;;;;;10525241;28;20213;-69
2021/06/19 18:58:20;;;;;;;11.77;7.18;;;;;;;;;;10526283;28;20277;-70
2021/06/19 19:03:24;;;;;;;10.98;7.75;;;;;;;;;;10528337;28;20225;-70
2021/06/19 19:08:26;;;;;;;10.45;7.30;;;;;;;;;;10523754;28;20302;-70
2021/06/19 19:13:29;;;;;;;12.88;7.18;;;;;;;;;;10522868;28;20220;-71
2021/06/19 19:18:33;;;;;;;14.60;9.07;;;;;;;;;;10527552;28;20247;-71
2021/06/19 19:23:35;;;;;;;11.70;7.93;;;;;;;;;;10524822;28;20223;-71
2021/06/19 19:28:38;;;;;;;11.25;7.75;;;;;;;;;;10527278;28;20242;-70
2021/06/19 19:33:42;;;;;;;10.13;7.07;;;;;;;;;;10520360;28;20223;-71
2021/06/19 19:38:45;;;;;;;16.65;12.48;;;;;;;;;;10527442;28;20862;-70
2021/06/19 19:43:49;;;;;;;12.52;8.43;;;;;;;;;;10525367;28;20730;-71
2021/06/19 19:48:53;;;;;;;16.65;9.57;;;;;;;;;;10526325;28;20216;-70
2021/06/19 19:53:55;;;;;;;11.63;8.25;;;;;;;;;;10522652;28;20851;-69
2021/06/19 19:58:58;;;;;;;12.60;8.70;;;;;;;;;;10525313;28;20720;-71
2021/06/19 20:04:02;;;;;;;11.05;8.40;;;;;;;;;;10525950;28;20394;-71
2021/06/19 20:09:05;;;;;;;12.10;8.38;;;;;;;;;;10515195;28;20872;-71
2021/06/19 20:14:07;;;;;;;14.32;8.75;;;;;;;;;;10525547;28;20652;-71
2021/06/19 20:19:11;;;;;;;12.35;8.23;;;;;;;;;;10523499;28;20327;-71
2021/06/19 20:24:14;;;;;;;10.82;8.50;;;;;;;;;;10534103;28;20215;-69
2021/06/19 20:29:16;;;;;;;11.00;7.85;;;;;;;;;;10522635;28;20280;-70
2021/06/19 20:34:20;;;;;;;11.95;8.80;;;;;;;;;;10526981;28;20219;-71
2021/06/19 20:39:23;;;;;;;13.50;9.15;;;;;;;;;;10516413;28;20276;-75
2021/06/19 20:44:26;;;;;;;14.43;8.73;;;;;;;;;;10519611;28;20226;-72
2021/06/19 20:49:30;;;;;;;12.02;8.48;;;;;;;;;;10526716;28;20585;-71
2021/06/19 20:54:35;;;;;;;14.38;8.90;;;;;;;;;;10531530;28;20196;-71
2021/06/19 20:59:38;;;;;;;11.70;8.30;;;;;;;;;;10531304;28;20246;-71
2021/06/19 21:04:43;;;;;;;12.02;8.50;;;;;;;;;;10528956;28;20207;-70
2021/06/19 21:09:47;;;;;;;12.13;9.02;;;;;;;;;;10531324;28;20212;-71
2021/06/19 21:14:50;;;;;;;11.18;8.57;;;;;;;;;;10524633;28;20208;-70
2021/06/19 21:19:54;;;;;;;12.80;8.85;;;;;;;;;;10530383;28;20267;-70
2021/06/19 21:24:57;;;;;;;10.73;8.63;;;;;;;;;;10529110;28;20306;-70
2021/06/19 21:29:59;;;;;;;11.98;8.68;;;;;;;;;;10532007;28;20222;-70
2021/06/19 21:35:03;;;;;;;12.75;9.55;;;;;;;;;;10528402;28;20627;-70
2021/06/19 21:40:07;;;;;;;10.63;8.40;;;;;;;;;;10533369;28;20207;-68
2021/06/19 21:45:09;;;;;;;12.10;8.48;;;;;;;;;;10525856;28;20775;-68
2021/06/19 21:50:14;;;;;;;11.80;9.10;;;;;;;;;;10524233;28;20606;-69
2021/06/19 21:55:17;;;;;;;11.07;8.85;;;;;;;;;;10529203;28;20192;-66
2021/06/19 22:00:28;;;;;;;11.02;8.98;;;;;;;;;;10539988;28;20210;-68
2021/06/19 22:05:32;;;;;;;12.30;8.55;;;;;;;;;;10525055;28;20227;-66
2021/06/19 22:10:36;;;;;;;10.50;8.82;;;;;;;;;;10524181;28;20598;-69
2021/06/19 22:15:39;;;;;;;11.63;8.50;;;;;;;;;;10529375;28;20226;-69
2021/06/19 22:20:43;;;;;;;11.93;8.48;;;;;;;;;;10525762;28;20211;-71
2021/06/19 22:25:54;;;;;;;11.05;8.88;;;;;;;;;;10523436;28;20207;-69
2021/06/19 22:30:57;;;;;;;12.00;8.85;;;;;;;;;;10525447;28;20354;-69
2021/06/19 22:36:01;;;;;;;12.32;9.68;;;;;;;;;;10524657;28;20650;-68
2021/06/19 22:41:04;;;;;;;11.50;9.07;;;;;;;;;;10547240;28;20239;-69
2021/06/19 22:46:06;;;;;;;11.18;8.90;;;;;;;;;;10538195;28;20278;-68
2021/06/19 22:51:10;;;;;;;14.13;9.00;;;;;;;;;;10555494;28;20339;-68
2021/06/19 22:56:13;;;;;;;13.00;10.07;;;;;;;;;;10546027;28;20261;-68
2021/06/19 23:01:15;;;;;;;14.15;9.90;;;;;;;;;;10539794;28;20211;-68
2021/06/19 23:06:19;;;;;;;11.48;8.73;;;;;;;;;;10542859;28;20191;-68
2021/06/19 23:11:23;;;;;;;11.52;9.25;;;;;;;;;;10542620;28;20283;-68
2021/06/19 23:16:26;;;;;;;10.68;8.38;;;;;;;;;;10542934;28;20210;-69
2021/06/19 23:21:30;;;;;;;11.75;8.93;;;;;;;;;;10542063;28;20214;-69
2021/06/19 23:26:32;;;;;;;14.50;9.35;;;;;;;;;;10545534;28;20191;-68
2021/06/19 23:31:35;;;;;;;11.52;8.50;;;;;;;;;;10545100;28;20186;-67
2021/06/19 23:36:39;;;;;;;11.07;8.80;;;;;;;;;;10531134;28;20237;-68
2021/06/19 23:41:42;;;;;;;10.90;8.50;;;;;;;;;;10525906;28;20211;-68
2021/06/19 23:46:45;;;;;;;12.63;8.55;;;;;;;;;;10527508;28;20204;-68
2021/06/19 23:51:50;;;;;;;11.05;8.82;;;;;;;;;;10522302;28;20199;-69
2021/06/19 23:56:53;;;;;;;12.10;8.73;;;;;;;;;;10527572;28;20225;-68
